createdAt,value
2022-11-06T00:01:27.707Z,101411.60
2022-11-06T00:03:58.779Z,101411.65
2022-11-06T00:06:45.626Z,101416.07
2022-11-06T00:09:18.581Z,101415.16
2022-11-06T00:11:50.378Z,101421.41
2022-11-06T00:14:22.720Z,101415.77
2022-11-06T00:16:51.267Z,101419.55
2022-11-06T00:19:19.977Z,101419.05
2022-11-06T00:21:48.633Z,101420.86
2022-11-06T00:24:17.308Z,101423.54
2022-11-06T00:26:51.303Z,101427.01
2022-11-06T00:29:22.771Z,101427.95
2022-11-06T00:31:53.650Z,101428.19
2022-11-06T00:34:22.099Z,101427.00
2022-11-06T00:36:50.781Z,101427.63
2022-11-06T00:39:19.417Z,101425.25
2022-11-06T00:41:48.080Z,101430.52
2022-11-06T00:44:18.951Z,101433.52
2022-11-06T00:46:47.450Z,101433.05
2022-11-06T00:49:16.053Z,101431.66
2022-11-06T00:51:44.634Z,101434.45
2022-11-06T00:54:14.077Z,101432.00
2022-11-06T00:56:42.497Z,101429.42
2022-11-06T00:59:13.733Z,101432.07
2022-11-06T01:01:44.425Z,101430.27
2022-11-06T01:04:15.758Z,101435.77
2022-11-06T01:06:48.953Z,101436.13
2022-11-06T01:09:20.045Z,101432.81
2022-11-06T01:12:12.209Z,101429.77
2022-11-06T01:14:42.495Z,101429.98
2022-11-06T01:17:14.750Z,101433.16
2022-11-06T01:19:43.224Z,101431.80
2022-11-06T01:22:11.721Z,101431.48
2022-11-06T01:24:41.219Z,101426.89
2022-11-06T01:27:25.858Z,101424.19
2022-11-06T01:29:56.196Z,101426.02
2022-11-06T01:32:27.318Z,101427.60
2022-11-06T01:34:55.864Z,101424.90
2022-11-06T01:37:24.461Z,101427.38
2022-11-06T01:39:53.390Z,101425.66
2022-11-06T01:42:22.036Z,101427.84
2022-11-06T01:45:37.431Z,101428.10
2022-11-06T01:48:06.491Z,101430.85
2022-11-06T01:50:35.673Z,101433.23
2022-11-06T01:53:05.212Z,101427.96
2022-11-06T01:55:38.619Z,101424.41
2022-11-06T01:58:10.367Z,101426.33
2022-11-06T02:00:43.282Z,101427.16
2022-11-06T02:03:13.067Z,101433.68
2022-11-06T02:05:42.034Z,101433.52
2022-11-06T02:08:15.850Z,101426.04
2022-11-06T02:10:45.459Z,101432.25
2022-11-06T02:13:32.248Z,101433.41
2022-11-06T02:16:09.546Z,101431.05
2022-11-06T02:18:57.842Z,101432.22
2022-11-06T02:21:50.249Z,101434.69
2022-11-06T02:24:47.020Z,101433.85
2022-11-06T02:27:18.286Z,101433.67
2022-11-06T02:29:51.264Z,101436.52
2022-11-06T02:32:23.945Z,101435.28
2022-11-06T02:34:55.191Z,101442.55
2022-11-06T02:37:30.165Z,101439.88
2022-11-06T02:40:03.918Z,101440.48
2022-11-06T02:42:36.973Z,101436.07
2022-11-06T02:45:10.015Z,101435.69
2022-11-06T02:47:40.399Z,101433.27
2022-11-06T02:50:12.991Z,101440.83
2022-11-06T02:52:46.177Z,101444.30
2022-11-06T02:55:18.784Z,101441.86
2022-11-06T02:57:52.386Z,101440.16
2022-11-06T03:00:23.183Z,101441.80
2022-11-06T03:03:02.273Z,101447.91
2022-11-06T03:05:36.071Z,101446.15
2022-11-06T03:08:10.676Z,101446.73
2022-11-06T03:10:45.075Z,101449.28
2022-11-06T03:13:19.652Z,101454.37
2022-11-06T03:15:59.594Z,101454.92
2022-11-06T03:18:36.383Z,101457.83
2022-11-06T03:21:14.109Z,101456.05
2022-11-06T03:23:47.910Z,101454.96
2022-11-06T03:26:22.297Z,101454.52
2022-11-06T03:28:54.128Z,101450.17
2022-11-06T03:31:32.503Z,101450.76
2022-11-06T03:34:04.701Z,101449.20
2022-11-06T03:36:39.273Z,101447.25
2022-11-06T03:39:13.853Z,101442.98
2022-11-06T03:41:50.414Z,101444.66
2022-11-06T03:44:22.779Z,101442.12
2022-11-06T03:47:11.401Z,101442.22
2022-11-06T03:49:45.832Z,101439.33
2022-11-06T03:52:19.306Z,101441.95
2022-11-06T03:54:52.881Z,101441.29
2022-11-06T03:57:25.322Z,101442.96
2022-11-06T04:00:00.770Z,101445.12
2022-11-06T04:02:33.087Z,101450.45
2022-11-06T04:05:07.377Z,101449.41
2022-11-06T04:07:38.649Z,101446.48
2022-11-06T04:10:30.374Z,101450.56
2022-11-06T04:13:18.079Z,101444.71
2022-11-06T04:15:52.025Z,101448.79
2022-11-06T04:18:20.637Z,101450.62
2022-11-06T04:21:15.691Z,101449.33
2022-11-06T04:24:13.342Z,101448.39
2022-11-06T04:26:52.800Z,101450.93
2022-11-06T04:29:33.912Z,101449.23
2022-11-06T04:32:10.981Z,101450.75
2022-11-06T04:34:45.537Z,101452.64
2022-11-06T04:37:20.914Z,101457.27
2022-11-06T04:39:56.279Z,101453.23
2022-11-06T04:42:33.631Z,101454.77
2022-11-06T04:45:06.475Z,101451.80
2022-11-06T04:47:37.756Z,101451.91
2022-11-06T04:50:11.265Z,101458.52
2022-11-06T04:52:40.668Z,101457.56
2022-11-06T04:55:09.626Z,101458.41
2022-11-06T04:57:38.119Z,101454.47
2022-11-06T05:00:12.060Z,101456.62
2022-11-06T05:02:40.497Z,101455.70
2022-11-06T05:05:09.143Z,101453.84
2022-11-06T05:07:37.579Z,101454.34
2022-11-06T05:10:10.119Z,101455.45
2022-11-06T05:12:38.551Z,101450.63
2022-11-06T05:15:09.522Z,101451.41
2022-11-06T05:17:37.964Z,101455.10
2022-11-06T05:20:08.070Z,101454.92
2022-11-06T05:22:59.252Z,101448.36
2022-11-06T05:25:29.662Z,101446.95
2022-11-06T05:27:58.776Z,101447.23
2022-11-06T05:30:27.901Z,101447.45
2022-11-06T05:32:56.324Z,101454.39
2022-11-06T05:35:25.150Z,101452.00
2022-11-06T05:37:59.507Z,101452.30
2022-11-06T05:40:31.440Z,101457.15
2022-11-06T05:42:59.943Z,101457.88
2022-11-06T05:45:29.897Z,101458.66
2022-11-06T05:47:58.347Z,101458.16
2022-11-06T05:50:27.137Z,101460.16
2022-11-06T05:52:55.558Z,101461.04
2022-11-06T05:55:24.053Z,101462.95
2022-11-06T05:57:57.250Z,101462.20
2022-11-06T06:03:25.206Z,101459.38
2022-11-06T06:06:25.393Z,101456.10
2022-11-06T06:08:53.752Z,101461.07
2022-11-06T06:11:22.419Z,101463.23
2022-11-06T06:13:50.856Z,101467.86
2022-11-06T06:16:19.406Z,101470.06
2022-11-06T06:18:50.495Z,101467.83
2022-11-06T06:21:19.117Z,101471.49
2022-11-06T06:23:50.557Z,101474.05
2022-11-06T06:26:18.974Z,101478.11
2022-11-06T06:28:49.689Z,101479.03
2022-11-06T06:31:18.164Z,101477.36
2022-11-06T06:33:46.661Z,101477.34
2022-11-06T06:36:15.093Z,101478.54
2022-11-06T06:38:43.521Z,101481.10
2022-11-06T06:41:12.010Z,101484.60
2022-11-06T06:43:40.730Z,101487.30
2022-11-06T06:46:09.313Z,101489.67
2022-11-06T06:48:37.781Z,101494.54
2022-11-06T06:51:07.662Z,101485.08
2022-11-06T06:53:36.747Z,101492.42
2022-11-06T06:56:06.659Z,101493.48
2022-11-06T06:58:35.233Z,101494.45
2022-11-06T07:01:05.758Z,101494.39
2022-11-06T07:03:34.423Z,101491.38
2022-11-06T07:06:03.528Z,101490.25
2022-11-06T07:08:33.139Z,101492.43
2022-11-06T07:11:02.322Z,101493.83
2022-11-06T07:13:35.578Z,101499.77
2022-11-06T07:16:10.206Z,101502.30
2022-11-06T07:18:40.118Z,101503.67
2022-11-06T07:21:11.696Z,101507.87
2022-11-06T07:23:40.539Z,101506.65
2022-11-06T07:26:09.385Z,101500.16
2022-11-06T07:28:37.958Z,101495.48
2022-11-06T07:31:07.686Z,101496.39
2022-11-06T07:33:36.641Z,101498.38
2022-11-06T07:36:08.051Z,101505.19
2022-11-06T07:38:38.284Z,101506.66
2022-11-06T07:41:13.605Z,101509.61
2022-11-06T07:43:43.631Z,101507.00
2022-11-06T07:46:13.290Z,101508.33
2022-11-06T07:48:42.020Z,101510.44
2022-11-06T07:51:13.385Z,101506.83
2022-11-06T07:53:42.025Z,101509.30
2022-11-06T07:56:11.184Z,101509.36
2022-11-06T07:58:40.007Z,101504.95
2022-11-06T08:01:18.522Z,101511.23
2022-11-06T08:03:48.301Z,101507.13
2022-11-06T08:06:17.177Z,101508.43
2022-11-06T08:08:46.650Z,101511.61
2022-11-06T08:11:17.885Z,101508.21
2022-11-06T08:13:46.926Z,101505.52
2022-11-06T08:16:18.583Z,101502.64
2022-11-06T08:18:52.658Z,101504.37
2022-11-06T08:21:22.906Z,101503.21
2022-11-06T08:23:51.870Z,101502.50
2022-11-06T08:26:21.202Z,101498.58
2022-11-06T08:28:49.894Z,101494.23
2022-11-06T08:31:20.439Z,101493.42
2022-11-06T08:33:50.637Z,101496.45
2022-11-06T08:36:19.546Z,101498.46
2022-11-06T08:38:48.749Z,101495.33
2022-11-06T08:41:17.609Z,101499.39
2022-11-06T08:43:50.723Z,101500.13
2022-11-06T08:46:23.816Z,101504.70
2022-11-06T08:48:52.432Z,101500.39
2022-11-06T08:51:21.104Z,101495.70
2022-11-06T08:53:50.196Z,101494.87
2022-11-06T08:56:18.917Z,101494.12
2022-11-06T08:58:51.524Z,101491.94
2022-11-06T09:01:25.096Z,101485.19
2022-11-06T09:03:53.983Z,101488.02
2022-11-06T09:06:22.551Z,101486.54
2022-11-06T09:08:51.013Z,101486.80
2022-11-06T09:11:19.509Z,101486.89
2022-11-06T09:13:48.261Z,101488.42
2022-11-06T09:16:16.801Z,101487.47
2022-11-06T09:18:45.338Z,101486.83
2022-11-06T09:21:13.974Z,101485.66
2022-11-06T09:23:43.955Z,101482.83
2022-11-06T09:26:12.564Z,101485.61
2022-11-06T09:28:41.591Z,101473.50
2022-11-06T09:31:10.357Z,101482.55
2022-11-06T09:33:39.036Z,101483.13
2022-11-06T09:36:11.912Z,101481.91
2022-11-06T09:38:40.479Z,101483.23
2022-11-06T09:41:21.827Z,101479.56
2022-11-06T09:44:06.902Z,101478.39
2022-11-06T09:46:42.347Z,101483.42
2022-11-06T09:49:19.707Z,101483.39
2022-11-06T09:51:54.743Z,101483.00
2022-11-06T09:54:28.358Z,101479.73
2022-11-06T09:57:02.159Z,101477.52
2022-11-06T09:59:34.791Z,101478.08
2022-11-06T10:02:14.807Z,101478.95
2022-11-06T10:04:55.306Z,101475.67
2022-11-06T10:07:30.012Z,101475.76
2022-11-06T10:10:00.839Z,101478.48
2022-11-06T10:12:39.751Z,101474.97
2022-11-06T10:15:22.095Z,101475.25
2022-11-06T10:18:00.868Z,101471.27
2022-11-06T10:20:36.180Z,101463.95
2022-11-06T10:23:12.897Z,101462.19
2022-11-06T10:25:54.156Z,101458.54
2022-11-06T10:28:46.553Z,101455.98
2022-11-06T10:31:24.305Z,101459.08
2022-11-06T10:33:57.946Z,101450.82
2022-11-06T10:36:31.353Z,101452.17
2022-11-06T10:39:01.685Z,101445.63
2022-11-06T10:41:35.176Z,101446.81
2022-11-06T10:44:14.670Z,101444.35
2022-11-06T10:46:47.895Z,101441.76
2022-11-06T10:49:35.855Z,101437.59
2022-11-06T10:52:25.595Z,101429.32
2022-11-06T10:55:08.786Z,101426.46
2022-11-06T10:57:44.436Z,101423.88
2022-11-06T11:00:15.159Z,101421.14
2022-11-06T11:02:47.826Z,101421.13
2022-11-06T11:05:18.745Z,101420.19
2022-11-06T11:07:49.215Z,101418.27
2022-11-06T11:10:31.117Z,101412.36
2022-11-06T11:13:07.152Z,101405.92
2022-11-06T11:15:50.216Z,101399.86
2022-11-06T11:18:30.435Z,101395.65
2022-11-06T11:21:22.271Z,101388.65
2022-11-06T11:24:08.935Z,101387.33
2022-11-06T11:26:42.875Z,101380.91
2022-11-06T11:29:16.861Z,101379.34
2022-11-06T11:31:49.907Z,101377.90
2022-11-06T11:34:21.981Z,101374.70
2022-11-06T11:36:57.469Z,101369.71
2022-11-06T11:39:30.268Z,101359.75
2022-11-06T11:42:17.176Z,101357.98
2022-11-06T11:44:45.993Z,101352.26
2022-11-06T11:47:22.699Z,101356.79
2022-11-06T11:49:51.369Z,101355.14
2022-11-06T11:52:21.944Z,101352.34
2022-11-06T11:54:53.908Z,101348.52
2022-11-06T11:57:24.952Z,101345.06
2022-11-06T11:59:57.182Z,101335.98
2022-11-06T12:02:29.980Z,101336.92
2022-11-06T12:05:05.809Z,101333.95
2022-11-06T12:07:40.886Z,101330.49
2022-11-06T12:10:22.672Z,101332.76
2022-11-06T12:12:53.239Z,101335.38
2022-11-06T12:15:25.888Z,101336.80
2022-11-06T12:17:59.521Z,101334.26
2022-11-06T12:20:39.460Z,101334.02
2022-11-06T12:23:16.535Z,101330.31
2022-11-06T12:25:52.973Z,101325.71
2022-11-06T12:28:25.016Z,101323.06
2022-11-06T12:31:03.161Z,101319.55
2022-11-06T12:34:04.559Z,101319.23
2022-11-06T12:36:27.127Z,101317.40
2022-11-06T12:39:00.835Z,101307.39
2022-11-06T12:41:32.930Z,101305.87
2022-11-06T12:44:02.286Z,101307.33
2022-11-06T12:46:40.261Z,101309.95
2022-11-06T12:49:35.472Z,101304.46
2022-11-06T12:52:15.808Z,101296.39
2022-11-06T12:55:04.178Z,101294.83
2022-11-06T12:57:43.098Z,101297.38
2022-11-06T13:00:16.468Z,101302.19
2022-11-06T13:03:19.186Z,101301.20
2022-11-06T13:05:55.358Z,101301.22
2022-11-06T13:08:35.384Z,101300.30
2022-11-06T13:11:22.404Z,101296.52
2022-11-06T13:14:02.284Z,101298.21
2022-11-06T13:16:38.187Z,101297.36
2022-11-06T13:19:15.189Z,101295.16
2022-11-06T13:22:15.720Z,101295.19
2022-11-06T13:24:51.100Z,101297.37
2022-11-06T13:27:27.581Z,101296.12
2022-11-06T13:30:01.716Z,101299.90
2022-11-06T13:32:32.982Z,101296.98
2022-11-06T13:35:03.716Z,101295.70
2022-11-06T13:37:38.363Z,101296.89
2022-11-06T13:40:18.411Z,101307.08
2022-11-06T13:42:51.084Z,101303.77
2022-11-06T13:45:21.745Z,101301.71
2022-11-06T13:48:03.095Z,101303.79
2022-11-06T13:50:38.499Z,101300.64
2022-11-06T13:53:16.389Z,101295.40
2022-11-06T13:55:59.904Z,101294.43
2022-11-06T13:58:56.333Z,101296.73
2022-11-06T14:01:40.094Z,101292.09
2022-11-06T14:04:23.542Z,101293.95
2022-11-06T14:06:56.812Z,101290.75
2022-11-06T14:09:27.901Z,101288.12
2022-11-06T14:12:00.010Z,101289.75
2022-11-06T14:14:32.371Z,101285.77
2022-11-06T14:17:23.128Z,101285.15
2022-11-06T14:20:25.959Z,101280.27
2022-11-06T14:22:54.573Z,101281.56
2022-11-06T14:25:58.305Z,101279.50
2022-11-06T14:28:31.950Z,101278.90
2022-11-06T14:31:21.502Z,101275.69
2022-11-06T14:34:01.931Z,101276.20
2022-11-06T14:36:35.823Z,101273.41
2022-11-06T14:39:10.699Z,101277.41
2022-11-06T14:41:54.758Z,101270.65
2022-11-06T14:44:44.760Z,101271.28
2022-11-06T14:47:34.176Z,101274.59
2022-11-06T14:50:23.322Z,101271.59
2022-11-06T14:52:55.372Z,101275.73
2022-11-06T14:55:29.905Z,101279.90
2022-11-06T14:58:12.306Z,101283.83
2022-11-06T15:00:50.293Z,101282.99
2022-11-06T15:03:28.099Z,101287.65
2022-11-06T15:06:05.387Z,101286.80
2022-11-06T15:08:56.441Z,101284.13
2022-11-06T15:11:54.118Z,101280.38
2022-11-06T15:14:59.392Z,101282.63
2022-11-06T15:17:34.419Z,101282.02
2022-11-06T15:20:15.702Z,101280.01
2022-11-06T15:22:53.352Z,101281.67
2022-11-06T15:25:24.844Z,101276.68
2022-11-06T15:27:58.973Z,101275.33
2022-11-06T15:30:29.179Z,101275.10
2022-11-06T15:33:17.034Z,101275.77
2022-11-06T15:35:48.991Z,101278.41
2022-11-06T15:38:22.605Z,101276.45
2022-11-06T15:40:53.536Z,101271.15
2022-11-06T15:43:28.631Z,101272.16
2022-11-06T15:46:16.210Z,101271.95
2022-11-06T15:48:45.076Z,101269.89
2022-11-06T15:51:28.389Z,101271.05
2022-11-06T15:53:59.068Z,101273.49
2022-11-06T15:56:32.771Z,101269.70
2022-11-06T15:59:13.229Z,101270.01
2022-11-06T16:01:46.665Z,101269.42
2022-11-06T16:04:21.551Z,101273.35
2022-11-06T16:06:51.470Z,101268.17
2022-11-06T16:09:23.226Z,101267.58
2022-11-06T16:11:53.292Z,101265.98
2022-11-06T16:14:22.404Z,101266.41
2022-11-06T16:16:52.662Z,101268.61
2022-11-06T16:19:30.997Z,101264.70
2022-11-06T16:22:07.286Z,101256.80
2022-11-06T16:24:43.622Z,101254.69
2022-11-06T16:27:14.030Z,101258.52
2022-11-06T16:29:49.732Z,101261.71
2022-11-06T16:32:25.420Z,101261.84
2022-11-06T16:34:54.654Z,101256.80
2022-11-06T16:37:46.539Z,101254.94
2022-11-06T16:40:49.842Z,101248.99
2022-11-06T16:43:20.454Z,101248.44
2022-11-06T16:45:55.110Z,101247.41
2022-11-06T16:48:36.695Z,101247.80
2022-11-06T16:51:08.062Z,101251.25
2022-11-06T16:53:50.701Z,101251.86
2022-11-06T16:56:24.116Z,101252.18
2022-11-06T16:58:56.825Z,101253.77
2022-11-06T17:01:26.402Z,101249.14
2022-11-06T17:04:10.257Z,101252.55
2022-11-06T17:06:38.835Z,101253.95
2022-11-06T17:09:27.217Z,101260.67
2022-11-06T17:11:57.751Z,101268.56
2022-11-06T17:14:26.854Z,101269.92
2022-11-06T17:16:57.595Z,101262.75
2022-11-06T17:19:27.399Z,101260.70
2022-11-06T17:21:57.333Z,101254.89
2022-11-06T17:24:41.615Z,101254.98
2022-11-06T17:27:10.418Z,101250.61
2022-11-06T17:29:47.658Z,101249.73
2022-11-06T17:32:24.506Z,101246.02
2022-11-06T17:34:52.976Z,101243.27
2022-11-06T17:37:21.859Z,101237.55
2022-11-06T17:39:50.611Z,101240.05
2022-11-06T17:42:19.337Z,101235.83
2022-11-06T17:44:47.928Z,101233.86
2022-11-06T17:47:16.387Z,101234.05
2022-11-06T17:49:46.256Z,101234.02
2022-11-06T17:52:32.760Z,101231.67
2022-11-06T17:55:29.558Z,101232.61
2022-11-06T17:57:58.158Z,101228.42
2022-11-06T18:00:31.748Z,101226.99
2022-11-06T18:03:37.330Z,101228.84
2022-11-06T18:06:20.506Z,101222.15
2022-11-06T18:08:48.959Z,101223.15
2022-11-06T18:11:55.037Z,101223.73
2022-11-06T18:14:26.053Z,101229.48
2022-11-06T18:16:54.529Z,101227.94
2022-11-06T18:19:25.056Z,101229.91
2022-11-06T18:22:01.045Z,101225.16
2022-11-06T18:24:38.146Z,101223.98
2022-11-06T18:27:06.696Z,101221.70
2022-11-06T18:29:35.145Z,101228.06
2022-11-06T18:32:17.906Z,101227.21
2022-11-06T18:34:49.160Z,101221.97
2022-11-06T18:37:17.676Z,101222.17
2022-11-06T18:39:46.156Z,101220.77
2022-11-06T18:42:14.665Z,101219.77
2022-11-06T18:44:43.208Z,101209.80
2022-11-06T18:47:11.839Z,101203.80
2022-11-06T18:49:40.360Z,101202.35
2022-11-06T18:52:08.970Z,101202.70
2022-11-06T18:54:39.172Z,101201.24
2022-11-06T18:57:07.707Z,101203.27
2022-11-06T18:59:36.528Z,101208.30
2022-11-06T19:02:05.326Z,101207.02
2022-11-06T19:04:34.754Z,101206.03
2022-11-06T19:07:05.978Z,101207.26
2022-11-06T19:09:34.652Z,101205.35
2022-11-06T19:12:03.160Z,101205.94
2022-11-06T19:14:31.707Z,101207.38
2022-11-06T19:17:00.529Z,101208.62
2022-11-06T19:19:28.947Z,101207.45
2022-11-06T19:21:57.444Z,101208.66
2022-11-06T19:24:26.188Z,101211.73
2022-11-06T19:26:54.836Z,101213.02
2022-11-06T19:29:30.378Z,101214.98
2022-11-06T19:32:01.744Z,101217.47
2022-11-06T19:34:34.093Z,101220.58
2022-11-06T19:37:05.186Z,101223.16
2022-11-06T19:39:36.773Z,101221.54
2022-11-06T19:42:05.499Z,101223.25
2022-11-06T19:44:36.802Z,101225.16
2022-11-06T19:47:05.828Z,101229.46
2022-11-06T19:49:34.270Z,101232.08
2022-11-06T19:52:41.258Z,101232.12
2022-11-06T19:54:51.372Z,101233.88
2022-11-06T19:57:39.888Z,101234.05
2022-11-06T20:00:11.620Z,101233.95
2022-11-06T20:02:40.284Z,101234.02
2022-11-06T20:05:09.337Z,101233.05
2022-11-06T20:07:37.758Z,101230.59
2022-11-06T20:10:08.328Z,101229.27
2022-11-06T20:12:36.737Z,101232.42
2022-11-06T20:15:06.861Z,101233.46
2022-11-06T20:17:35.236Z,101232.27
2022-11-06T20:20:04.797Z,101228.33
2022-11-06T20:22:33.187Z,101228.11
2022-11-06T20:25:01.676Z,101228.18
2022-11-06T20:27:30.225Z,101230.52
2022-11-06T20:30:00.811Z,101226.38
2022-11-06T20:32:29.639Z,101221.99
2022-11-06T20:34:59.173Z,101219.70
2022-11-06T20:37:31.691Z,101218.23
2022-11-06T20:40:00.677Z,101213.07
2022-11-06T20:42:30.247Z,101212.48
2022-11-06T20:44:58.870Z,101211.44
2022-11-06T20:47:32.378Z,101201.63
2022-11-06T20:50:00.946Z,101197.00
2022-11-06T20:52:30.172Z,101196.27
2022-11-06T20:54:59.512Z,101194.70
2022-11-06T20:57:28.000Z,101195.65
2022-11-06T20:59:59.154Z,101196.92
2022-11-06T21:02:27.688Z,101193.56
2022-11-06T21:04:57.392Z,101197.75
2022-11-06T21:07:27.844Z,101200.24
2022-11-06T21:09:58.663Z,101202.67
2022-11-06T21:12:27.171Z,101203.98
2022-11-06T21:14:55.773Z,101199.23
2022-11-06T21:17:26.974Z,101193.62
2022-11-06T21:19:55.538Z,101190.39
2022-11-06T21:22:24.373Z,101186.75
2022-11-06T21:24:52.950Z,101189.60
2022-11-06T21:27:21.477Z,101185.61
2022-11-06T21:29:50.193Z,101184.40
2022-11-06T21:32:19.194Z,101176.60
2022-11-06T21:34:47.678Z,101171.39
2022-11-06T21:37:16.119Z,101161.00
2022-11-06T21:39:44.569Z,101159.69
2022-11-06T21:42:12.979Z,101161.48
2022-11-06T21:44:42.086Z,101162.29
2022-11-06T21:47:10.541Z,101159.99
2022-11-06T21:49:39.598Z,101161.58
2022-11-06T21:52:29.366Z,101161.67
2022-11-06T21:55:16.610Z,101149.80
2022-11-06T21:57:45.186Z,101146.71
2022-11-06T22:00:15.914Z,101141.98
2022-11-06T22:02:44.450Z,101140.23
2022-11-06T22:05:13.866Z,101137.18
2022-11-06T22:07:42.219Z,101135.48
2022-11-06T22:10:12.802Z,101132.98
2022-11-06T22:12:41.436Z,101124.88
2022-11-06T22:15:10.780Z,101120.06
2022-11-06T22:17:41.360Z,101117.77
2022-11-06T22:20:12.060Z,101115.69
2022-11-06T22:22:42.706Z,101111.98
2022-11-06T22:25:12.051Z,101111.23
2022-11-06T22:27:44.073Z,101113.88
2022-11-06T22:30:14.155Z,101115.05
2022-11-06T22:32:42.622Z,101116.73
2022-11-06T22:35:11.089Z,101114.76
2022-11-06T22:37:39.690Z,101116.84
2022-11-06T22:40:11.112Z,101119.83
2022-11-06T22:42:39.834Z,101121.16
2022-11-06T22:45:09.992Z,101123.42
2022-11-06T22:47:38.466Z,101120.90
2022-11-06T22:50:08.615Z,101114.52
2022-11-06T22:52:37.056Z,101118.34
2022-11-06T22:55:06.924Z,101113.05
2022-11-06T22:57:36.679Z,101112.73
2022-11-06T23:00:12.563Z,101109.33
2022-11-06T23:02:41.455Z,101111.08
2022-11-06T23:05:10.262Z,101114.73
2022-11-06T23:07:38.703Z,101115.30
2022-11-06T23:10:09.504Z,101115.91
2022-11-06T23:12:37.937Z,101117.92
2022-11-06T23:15:10.097Z,101120.53
2022-11-06T23:17:38.678Z,101126.30
2022-11-06T23:20:09.277Z,101129.05
2022-11-06T23:22:37.937Z,101135.63
2022-11-06T23:25:09.144Z,101142.54
2022-11-06T23:27:38.729Z,101144.57
2022-11-06T23:30:10.572Z,101144.37
2022-11-06T23:32:43.020Z,101142.75
2022-11-06T23:35:16.079Z,101142.52
2022-11-06T23:37:45.816Z,101141.49
2022-11-06T23:40:16.808Z,101138.55
2022-11-06T23:42:47.444Z,101134.86
2022-11-06T23:45:34.855Z,101131.18
2022-11-06T23:48:08.495Z,101128.16
2022-11-06T23:50:37.279Z,101123.89
2022-11-06T23:53:05.725Z,101117.66
2022-11-06T23:55:35.491Z,101115.80
2022-11-06T23:58:04.146Z,101118.08
